Time;durP1;ratioP1;P1;durP2;ratioP2;P2;SDS_P1;SDS_P2;PMS_P1;PMS_P2;Temp;Humidity;BMP_temperature;BMP_pressure;BME280_temperature;BME280_humidity;BME280_pressure;Samples;Min_cycle;Max_cycle;Signal;HPM_P1;HPM_P2
2022/07/12 00:01:07;;;;;;;2.83;2.63;;;16.50;99.90;;;;;;4688054;28;10000057;-76
2022/07/12 00:03:33;;;;;;;3.30;3.00;;;16.40;99.90;;;;;;5043852;28;20230;-76
2022/07/12 00:06:00;;;;;;;3.53;3.10;;;16.40;99.90;;;;;;5042361;28;20025;-76
2022/07/12 00:08:25;;;;;;;2.92;2.72;;;16.40;99.90;;;;;;5042863;28;20123;-76
2022/07/12 00:10:51;;;;;;;4.95;3.17;;;16.40;99.90;;;;;;5044613;28;20199;-76
2022/07/12 00:13:17;;;;;;;4.82;3.80;;;16.30;99.90;;;;;;5036839;28;20432;-76
2022/07/12 00:15:43;;;;;;;3.58;3.20;;;16.30;99.90;;;;;;5045105;28;20029;-76
2022/07/12 00:18:09;;;;;;;3.33;2.85;;;16.30;99.90;;;;;;5037285;28;20037;-77
2022/07/12 00:20:36;;;;;;;4.72;3.03;;;16.30;99.90;;;;;;5041564;28;20067;-77
2022/07/12 00:23:02;;;;;;;3.35;3.00;;;16.20;99.90;;;;;;5041726;28;20031;-76
2022/07/12 00:25:27;;;;;;;3.92;3.33;;;16.20;99.90;;;;;;5041573;28;20534;-76
2022/07/12 00:27:53;;;;;;;3.72;3.40;;;16.20;99.90;;;;;;5045800;28;20041;-76
2022/07/12 00:30:19;;;;;;;3.88;2.95;;;16.10;99.90;;;;;;5041072;28;20044;-76
2022/07/12 00:32:45;;;;;;;3.60;2.90;;;16.10;99.90;;;;;;5038157;28;20116;-76
2022/07/12 00:35:11;;;;;;;4.45;2.67;;;16.00;99.90;;;;;;5041769;28;20044;-76
2022/07/12 00:37:37;;;;;;;3.55;3.20;;;16.00;99.90;;;;;;5042310;28;20519;-76
2022/07/12 00:40:12;;;;;;;4.32;2.90;;;16.00;99.90;;;;;;5028974;28;20173;-76
2022/07/12 00:42:41;;;;;;;4.15;2.67;;;16.00;99.90;;;;;;5034878;28;20120;-76
2022/07/12 00:45:07;;;;;;;3.75;2.90;;;15.90;99.90;;;;;;5044541;28;20025;-77
2022/07/12 00:47:40;;;;;;;3.05;2.80;;;15.90;99.90;;;;;;5038236;28;20029;-76
2022/07/12 00:50:12;;;;;;;4.93;3.00;;;15.90;99.90;;;;;;5036708;28;20040;-76
2022/07/12 00:52:39;;;;;;;3.17;2.95;;;15.80;99.90;;;;;;5042393;28;20051;-76
2022/07/12 00:55:06;;;;;;;4.20;3.78;;;15.80;99.90;;;;;;5035707;28;20115;-76
2022/07/12 00:57:33;;;;;;;6.03;3.78;;;15.70;99.90;;;;;;5039556;28;20052;-76
2022/07/12 00:59:59;;;;;;;5.40;4.20;;;15.70;99.90;;;;;;5022295;28;20147;-76
2022/07/12 01:02:25;;;;;;;7.72;3.70;;;15.60;99.90;;;;;;5040415;28;20130;-76
2022/07/12 01:04:52;;;;;;;7.07;3.83;;;15.60;99.90;;;;;;5043399;28;20039;-76
2022/07/12 01:07:18;;;;;;;4.68;3.72;;;15.60;99.90;;;;;;5042784;28;20056;-76
2022/07/12 01:09:44;;;;;;;5.22;3.90;;;15.60;99.90;;;;;;5043995;28;20445;-76
2022/07/12 01:12:10;;;;;;;4.30;3.92;;;15.60;99.90;;;;;;5042301;28;20017;-76
2022/07/12 01:14:37;;;;;;;4.05;3.65;;;15.50;99.90;;;;;;5042265;28;20124;-76
2022/07/12 01:17:03;;;;;;;5.97;3.60;;;15.50;99.90;;;;;;5039553;28;20041;-76
2022/07/12 01:19:29;;;;;;;3.53;3.22;;;15.50;99.90;;;;;;5042798;28;20079;-76
2022/07/12 01:21:59;;;;;;;3.70;3.03;;;15.50;99.90;;;;;;5046867;28;20052;-76
2022/07/12 01:24:24;;;;;;;5.75;3.50;;;15.40;99.90;;;;;;5030780;28;20103;-76
2022/07/12 01:26:51;;;;;;;6.93;3.75;;;15.40;99.90;;;;;;5041553;28;20112;-77
2022/07/12 01:29:16;;;;;;;6.45;3.97;;;15.40;99.90;;;;;;5040933;28;20053;-76
2022/07/12 01:31:43;;;;;;;4.25;3.85;;;15.40;99.90;;;;;;5039747;28;20527;-76
2022/07/12 01:34:08;;;;;;;4.03;3.47;;;15.30;99.90;;;;;;5054859;28;20033;-76
2022/07/12 01:36:36;;;;;;;3.67;3.38;;;15.30;99.90;;;;;;5041968;28;20059;-76
2022/07/12 01:39:04;;;;;;;4.30;3.63;;;15.20;99.90;;;;;;5039079;28;20032;-77
2022/07/12 01:41:31;;;;;;;7.05;4.13;;;15.20;99.90;;;;;;5046538;28;20036;-77
2022/07/12 01:43:56;;;;;;;5.18;4.68;;;15.20;99.90;;;;;;5039909;28;20043;-77
2022/07/12 01:46:22;;;;;;;4.25;3.70;;;15.20;99.90;;;;;;5037157;28;20021;-77
2022/07/12 01:48:48;;;;;;;4.47;3.88;;;15.10;99.90;;;;;;5044429;28;20367;-76
2022/07/12 01:51:14;;;;;;;6.38;4.55;;;15.20;99.90;;;;;;5046186;28;20064;-76
2022/07/12 01:53:39;;;;;;;5.43;4.28;;;15.10;99.90;;;;;;5042921;28;20033;-76
2022/07/12 01:56:05;;;;;;;4.80;3.78;;;15.10;99.90;;;;;;5034924;28;20037;-77
2022/07/12 01:58:31;;;;;;;5.25;3.72;;;15.10;99.90;;;;;;5039234;28;20834;-77
2022/07/12 02:00:58;;;;;;;10.02;5.25;;;15.00;99.90;;;;;;5039107;28;20060;-77
2022/07/12 02:03:23;;;;;;;8.57;4.72;;;15.00;99.90;;;;;;5041361;28;20565;-76
2022/07/12 02:05:49;;;;;;;5.00;3.90;;;15.00;99.90;;;;;;5054769;28;20040;-76
2022/07/12 02:08:15;;;;;;;7.47;4.30;;;15.00;99.90;;;;;;5040540;28;20138;-76
2022/07/12 02:10:42;;;;;;;6.57;4.53;;;15.00;99.90;;;;;;5046584;28;20021;-77
2022/07/12 02:13:08;;;;;;;4.90;4.20;;;15.00;99.90;;;;;;5041753;28;20028;-76
2022/07/12 02:15:34;;;;;;;6.95;4.57;;;15.00;99.90;;;;;;5039687;28;20078;-76
2022/07/12 02:18:00;;;;;;;8.07;5.13;;;15.00;99.90;;;;;;5049953;28;20029;-76
2022/07/12 02:20:25;;;;;;;4.80;4.05;;;15.00;99.90;;;;;;5033086;28;20246;-76
2022/07/12 02:22:51;;;;;;;11.30;4.57;;;15.00;99.90;;;;;;5031296;28;20433;-76
2022/07/12 02:25:17;;;;;;;5.32;4.82;;;14.90;99.90;;;;;;5043115;28;20060;-76
2022/07/12 02:27:42;;;;;;;4.63;4.22;;;14.90;99.90;;;;;;5042911;28;20498;-76
2022/07/12 02:30:10;;;;;;;4.45;4.05;;;14.80;99.90;;;;;;5042497;28;20120;-76
2022/07/12 02:32:36;;;;;;;7.43;4.00;;;14.80;99.90;;;;;;5042665;28;20017;-76
2022/07/12 02:35:03;;;;;;;4.57;4.15;;;14.80;99.90;;;;;;5038999;28;20043;-76
2022/07/12 02:37:28;;;;;;;4.75;3.72;;;14.70;99.90;;;;;;5043947;28;20025;-76
2022/07/12 02:42:39;;;;;;;4.63;3.83;;;14.70;99.90;;;;;;5033680;28;20122;-76
2022/07/12 02:45:05;;;;;;;4.70;3.65;;;14.70;99.90;;;;;;5048048;28;20090;-76
2022/07/12 02:47:30;;;;;;;4.75;3.70;;;14.70;99.90;;;;;;5044575;28;20198;-77
2022/07/12 02:49:57;;;;;;;4.30;3.90;;;14.70;99.90;;;;;;5040183;28;20099;-76
2022/07/12 02:52:24;;;;;;;5.03;3.45;;;14.70;99.90;;;;;;5039526;28;20027;-77
2022/07/12 02:54:49;;;;;;;3.92;3.53;;;14.70;99.90;;;;;;5042919;28;20017;-76
2022/07/12 02:57:15;;;;;;;3.90;3.60;;;14.70;99.90;;;;;;5047081;28;20086;-77
2022/07/12 02:59:41;;;;;;;5.25;4.70;;;14.70;99.90;;;;;;5038719;28;20378;-77
2022/07/12 03:02:06;;;;;;;8.30;4.05;;;14.70;99.90;;;;;;5032146;28;20527;-77
2022/07/12 03:04:32;;;;;;;4.70;4.30;;;14.60;99.90;;;;;;5043178;28;20436;-76
2022/07/12 03:06:57;;;;;;;5.03;4.13;;;14.60;99.90;;;;;;5041158;28;20021;-76
2022/07/12 03:09:23;;;;;;;5.72;3.88;;;14.60;99.90;;;;;;5039260;28;20025;-76
2022/07/12 03:11:48;;;;;;;6.85;4.13;;;14.60;99.90;;;;;;5053915;28;20017;-76
2022/07/12 03:14:14;;;;;;;4.63;4.00;;;14.50;99.90;;;;;;5042783;28;20135;-76
2022/07/12 03:16:40;;;;;;;4.70;4.20;;;14.50;99.90;;;;;;5043461;28;20533;-76
2022/07/12 03:19:05;;;;;;;8.63;4.78;;;14.50;99.90;;;;;;5039826;28;20030;-76
2022/07/12 03:21:31;;;;;;;6.00;4.57;;;14.50;99.90;;;;;;5048269;28;20033;-76
2022/07/12 03:23:57;;;;;;;5.80;4.80;;;14.50;99.90;;;;;;5047557;28;20542;-76
2022/07/12 03:26:23;;;;;;;5.10;4.07;;;14.50;99.90;;;;;;5036975;28;20078;-76
2022/07/12 03:28:48;;;;;;;8.30;4.55;;;14.50;99.90;;;;;;5035278;28;20466;-76
2022/07/12 03:31:14;;;;;;;8.45;5.00;;;14.50;99.90;;;;;;5037309;28;20037;-76
2022/07/12 03:33:39;;;;;;;6.93;4.55;;;14.50;99.90;;;;;;5034359;28;20033;-76
2022/07/12 03:36:08;;;;;;;6.60;4.60;;;14.60;99.90;;;;;;5037944;28;20124;-76
2022/07/12 03:38:34;;;;;;;5.57;4.57;;;14.60;99.90;;;;;;5047013;28;20048;-76
2022/07/12 03:41:00;;;;;;;9.30;5.68;;;14.60;99.90;;;;;;5034939;28;20442;-76
2022/07/12 03:43:26;;;;;;;14.15;7.00;;;14.60;99.90;;;;;;5046355;28;20025;-76
2022/07/12 03:45:53;;;;;;;6.25;5.65;;;14.70;99.90;;;;;;5042723;28;20111;-76
2022/07/12 03:48:18;;;;;;;5.80;5.20;;;14.70;99.90;;;;;;5043503;28;20044;-76
2022/07/12 03:50:45;;;;;;;8.05;4.80;;;14.70;99.90;;;;;;5042526;28;20040;-76
2022/07/12 03:53:11;;;;;;;8.77;5.68;;;14.70;99.90;;;;;;5045272;28;20033;-76
2022/07/12 03:55:36;;;;;;;9.48;5.93;;;14.80;99.90;;;;;;5044928;28;20052;-77
2022/07/12 03:58:02;;;;;;;8.70;4.97;;;14.80;99.90;;;;;;5056072;28;20527;-76
2022/07/12 04:00:28;;;;;;;6.28;4.78;;;14.90;99.90;;;;;;5042382;28;20032;-76
2022/07/12 04:02:54;;;;;;;6.70;4.85;;;14.90;99.90;;;;;;5037303;28;20051;-77
2022/07/12 04:05:20;;;;;;;5.82;4.90;;;15.00;99.90;;;;;;5038324;28;20086;-76
2022/07/12 04:07:45;;;;;;;7.57;4.85;;;15.00;99.90;;;;;;5041276;28;20025;-77
2022/07/12 04:10:11;;;;;;;7.03;4.88;;;15.00;99.90;;;;;;5052576;28;20036;-76
2022/07/12 04:12:37;;;;;;;9.95;4.93;;;15.10;99.90;;;;;;5048050;28;20195;-77
2022/07/12 04:15:04;;;;;;;4.60;4.07;;;15.20;99.90;;;;;;5034993;28;20318;-77
2022/07/12 04:17:30;;;;;;;8.27;4.50;;;15.20;99.90;;;;;;5034973;28;20025;-77
2022/07/12 04:19:56;;;;;;;5.05;3.75;;;15.30;99.90;;;;;;5040363;28;20033;-77
2022/07/12 04:22:22;;;;;;;20.60;4.90;;;15.30;99.90;;;;;;5040835;28;20024;-77
2022/07/12 04:24:47;;;;;;;12.55;4.38;;;15.40;99.90;;;;;;5050044;28;20021;-77
2022/07/12 04:27:13;;;;;;;8.40;4.20;;;15.40;99.90;;;;;;5043791;28;20107;-76
2022/07/12 04:29:39;;;;;;;19.95;4.90;;;15.40;99.90;;;;;;5043274;28;20032;-77
2022/07/12 04:32:04;;;;;;;16.20;4.95;;;15.50;99.90;;;;;;5046345;28;20437;-76
2022/07/12 04:34:30;;;;;;;8.48;4.60;;;15.50;99.90;;;;;;5035899;28;20025;-76
2022/07/12 04:36:55;;;;;;;8.27;4.80;;;15.50;99.90;;;;;;5039410;28;20067;-77
2022/07/12 04:39:21;;;;;;;5.22;4.50;;;15.60;99.90;;;;;;5034746;28;20039;-77
2022/07/12 04:41:47;;;;;;;8.95;4.30;;;15.60;99.90;;;;;;5046854;28;20169;-77
2022/07/12 04:44:12;;;;;;;9.50;4.40;;;15.60;99.90;;;;;;5041338;28;20047;-76
2022/07/12 04:46:38;;;;;;;12.30;5.00;;;15.60;99.90;;;;;;5039389;28;20097;-76
2022/07/12 04:49:06;;;;;;;12.82;5.15;;;15.60;99.90;;;;;;5037179;28;20094;-76
2022/07/12 04:51:31;;;;;;;11.73;4.70;;;15.70;99.90;;;;;;5035792;28;20088;-77
2022/07/12 04:53:57;;;;;;;11.20;4.35;;;15.60;99.90;;;;;;5035953;28;20108;-77
2022/07/12 04:56:23;;;;;;;18.45;4.53;;;15.60;99.90;;;;;;5042671;28;20032;-77
2022/07/12 04:58:48;;;;;;;9.52;3.90;;;15.60;99.90;;;;;;5030744;28;20028;-76
2022/07/12 05:01:15;;;;;;;13.18;4.47;;;15.50;99.90;;;;;;5033585;28;20037;-76
2022/07/12 05:03:41;;;;;;;16.83;3.85;;;15.40;99.90;;;;;;5043998;28;20044;-75
2022/07/12 05:06:06;;;;;;;14.68;4.15;;;15.30;99.90;;;;;;5041024;28;20493;-76
2022/07/12 05:08:32;;;;;;;22.85;4.63;;;15.40;99.90;;;;;;5047296;28;20067;-75
2022/07/12 05:10:57;;;;;;;14.02;4.55;;;15.40;99.90;;;;;;5036899;28;20274;-75
2022/07/12 05:13:23;;;;;;;13.07;4.55;;;15.40;99.90;;;;;;5048002;28;20396;-75
2022/07/12 05:15:49;;;;;;;14.80;4.20;;;15.50;99.90;;;;;;5038504;28;20477;-76
2022/07/12 05:18:14;;;;;;;24.27;6.10;;;15.50;99.90;;;;;;5043205;28;20540;-76
2022/07/12 05:20:41;;;;;;;15.60;4.70;;;15.50;99.90;;;;;;5039716;28;20120;-76
2022/07/12 05:23:07;;;;;;;9.48;4.88;;;15.50;99.90;;;;;;5039317;28;20060;-76
2022/07/12 05:25:32;;;;;;;16.25;5.38;;;15.50;99.90;;;;;;5037324;28;20056;-75
2022/07/12 05:27:59;;;;;;;10.77;4.25;;;15.50;99.90;;;;;;5036962;28;20036;-76
2022/07/12 05:30:25;;;;;;;10.27;5.05;;;15.60;99.90;;;;;;5040467;28;20041;-76
2022/07/12 05:32:51;;;;;;;11.48;4.82;;;15.60;99.90;;;;;;5051884;28;20103;-75
2022/07/12 05:35:17;;;;;;;15.25;5.57;;;15.60;99.90;;;;;;5037162;28;20175;-76
2022/07/12 05:37:42;;;;;;;12.15;4.75;;;15.60;99.90;;;;;;5046567;28;20472;-76
2022/07/12 05:40:09;;;;;;;13.48;4.90;;;15.70;99.90;;;;;;5042402;28;20039;-75
2022/07/12 05:42:35;;;;;;;14.82;5.60;;;15.70;99.90;;;;;;5044633;28;20033;-75
2022/07/12 05:45:00;;;;;;;17.05;4.97;;;15.80;99.90;;;;;;5045403;28;20029;-76
2022/07/12 05:47:26;;;;;;;13.30;4.93;;;15.90;99.90;;;;;;5041368;28;20516;-76
2022/07/12 05:49:52;;;;;;;12.70;4.97;;;15.90;99.90;;;;;;5022170;28;20025;-75
2022/07/12 05:55:03;;;;;;;16.38;5.00;;;16.00;99.90;;;;;;5040873;28;20040;-76
2022/07/12 05:57:29;;;;;;;10.40;4.72;;;16.10;99.90;;;;;;5043706;28;20047;-76
2022/07/12 05:59:54;;;;;;;10.07;4.80;;;16.10;99.90;;;;;;5041073;28;20434;-76
2022/07/12 06:02:20;;;;;;;7.38;4.15;;;16.20;99.90;;;;;;5046727;28;20136;-76
2022/07/12 06:04:46;;;;;;;12.88;4.35;;;16.20;99.90;;;;;;5043446;28;20111;-75
2022/07/12 06:07:11;;;;;;;14.40;4.78;;;16.20;99.90;;;;;;5040553;28;20052;-75
2022/07/12 06:09:37;;;;;;;13.02;5.13;;;16.20;99.90;;;;;;5040359;28;20448;-75
2022/07/12 06:12:03;;;;;;;15.45;5.55;;;16.20;99.90;;;;;;5038238;28;20114;-76
2022/07/12 06:14:29;;;;;;;12.90;4.65;;;16.30;99.90;;;;;;5042008;28;20025;-76
2022/07/12 06:16:55;;;;;;;11.25;5.20;;;16.40;99.90;;;;;;5046039;28;20108;-75
2022/07/12 06:19:23;;;;;;;8.73;4.88;;;16.50;99.90;;;;;;5032667;28;20115;-75
2022/07/12 06:21:49;;;;;;;12.68;5.13;;;16.60;99.90;;;;;;5033993;28;20510;-76
2022/07/12 06:24:14;;;;;;;14.10;5.05;;;16.60;99.90;;;;;;5031313;28;20123;-75
2022/07/12 06:26:40;;;;;;;11.60;5.10;;;16.70;99.90;;;;;;5033420;28;20039;-75
2022/07/12 06:29:06;;;;;;;8.60;5.03;;;16.80;99.90;;;;;;5040729;28;20103;-75
2022/07/12 06:31:34;;;;;;;14.15;4.90;;;16.90;99.90;;;;;;5041577;28;20044;-76
2022/07/12 06:33:59;;;;;;;10.48;5.55;;;17.00;99.90;;;;;;5048699;28;20032;-76
2022/07/12 06:36:25;;;;;;;17.77;5.40;;;17.20;99.90;;;;;;5041409;28;20651;-76
2022/07/12 06:38:50;;;;;;;10.32;4.82;;;17.30;99.90;;;;;;5030905;28;20072;-76
2022/07/12 06:41:16;;;;;;;15.73;4.70;;;17.40;99.90;;;;;;5032846;28;20038;-76
2022/07/12 06:43:42;;;;;;;11.02;4.70;;;17.40;99.90;;;;;;5041408;28;20486;-76
2022/07/12 06:46:08;;;;;;;11.43;4.78;;;17.50;99.90;;;;;;5031836;28;20037;-76
2022/07/12 06:48:33;;;;;;;10.48;4.40;;;17.70;99.90;;;;;;5042971;28;20021;-76
2022/07/12 06:50:59;;;;;;;5.72;4.22;;;17.80;99.90;;;;;;5047641;28;20422;-75
2022/07/12 06:53:24;;;;;;;9.07;5.38;;;17.80;99.90;;;;;;5041649;28;20029;-76
2022/07/12 06:55:50;;;;;;;7.70;5.03;;;17.90;99.90;;;;;;5049142;28;20107;-76
2022/07/12 06:58:16;;;;;;;12.70;6.68;;;18.00;99.90;;;;;;5047377;28;21783;-76
2022/07/12 07:00:42;;;;;;;11.93;5.90;;;18.20;99.90;;;;;;5044761;28;20130;-76
2022/07/12 07:03:08;;;;;;;6.60;5.07;;;18.20;99.90;;;;;;5049226;28;20040;-76
2022/07/12 07:05:36;;;;;;;11.15;5.45;;;18.30;99.90;;;;;;5055876;28;20120;-76
2022/07/12 07:08:02;;;;;;;8.98;6.20;;;18.50;99.90;;;;;;5046565;28;20036;-76
2022/07/12 07:10:27;;;;;;;6.88;5.90;;;18.60;99.90;;;;;;5040625;28;20064;-75
2022/07/12 07:12:53;;;;;;;6.68;5.50;;;18.60;99.90;;;;;;5049084;28;20029;-75
2022/07/12 07:15:19;;;;;;;8.52;5.32;;;18.70;99.90;;;;;;5063043;28;20402;-75
2022/07/12 07:17:45;;;;;;;11.45;5.72;;;18.80;99.90;;;;;;5051261;28;20025;-76
2022/07/12 07:20:11;;;;;;;7.15;5.88;;;18.80;99.90;;;;;;5043541;28;20193;-75
2022/07/12 07:22:37;;;;;;;8.93;5.70;;;18.80;99.90;;;;;;5046519;28;20599;-75
2022/07/12 07:25:03;;;;;;;7.38;4.95;;;19.00;99.90;;;;;;5042767;28;20029;-75
2022/07/12 07:27:29;;;;;;;9.65;5.78;;;19.30;99.90;;;;;;5045515;28;20028;-75
2022/07/12 07:32:39;;;;;;;6.30;4.45;;;20.20;99.90;;;;;;5036327;28;20109;-76
2022/07/12 07:35:05;;;;;;;6.00;4.10;;;;;;;;;;5039343;28;20120;-75
2022/07/12 07:37:32;;;;;;;5.60;4.32;;;20.90;99.90;;;;;;5054489;28;20026;-75
2022/07/12 07:39:57;;;;;;;7.65;3.65;;;21.10;99.90;;;;;;5044681;28;20405;-75
2022/07/12 07:42:23;;;;;;;8.40;4.03;;;21.20;99.90;;;;;;5048280;28;20026;-75
2022/07/12 07:44:49;;;;;;;5.57;3.50;;;21.20;99.90;;;;;;5040353;28;20029;-76
2022/07/12 07:47:14;;;;;;;5.47;2.95;;;21.20;99.90;;;;;;5055043;28;20473;-75
2022/07/12 07:49:40;;;;;;;3.20;2.90;;;21.20;99.90;;;;;;5037511;28;20032;-76
2022/07/12 07:52:05;;;;;;;3.83;2.22;;;21.20;99.90;;;;;;5044239;28;20219;-75
2022/07/12 07:54:31;;;;;;;5.30;2.10;;;21.30;99.90;;;;;;5047719;28;20397;-75
2022/07/12 07:56:57;;;;;;;3.67;2.30;;;21.40;99.90;;;;;;5046737;28;20034;-76
2022/07/12 07:59:22;;;;;;;2.97;1.73;;;21.50;99.90;;;;;;5034546;28;20043;-76
2022/07/12 08:01:52;;;;;;;3.03;1.90;;;21.40;99.90;;;;;;5042966;28;20028;-76
2022/07/12 08:04:18;;;;;;;5.10;2.20;;;21.30;99.90;;;;;;5046992;28;20464;-76
2022/07/12 08:06:45;;;;;;;7.35;2.92;;;21.20;99.90;;;;;;5044367;28;20079;-75
2022/07/12 08:09:11;;;;;;;2.67;2.30;;;21.10;99.90;;;;;;5045641;28;20525;-76
2022/07/12 08:11:37;;;;;;;1.75;1.65;;;21.00;99.90;;;;;;5036024;28;20021;-75
2022/07/12 08:14:04;;;;;;;2.03;1.77;;;21.00;99.90;;;;;;5048380;28;20055;-76
2022/07/12 08:16:30;;;;;;;3.15;2.03;;;21.00;99.90;;;;;;5046886;28;20017;-76
2022/07/12 08:18:56;;;;;;;2.47;1.60;;;20.90;99.90;;;;;;5045460;28;20025;-76
2022/07/12 08:21:22;;;;;;;3.58;1.92;;;20.80;99.90;;;;;;5045095;28;20509;-76
2022/07/12 08:23:47;;;;;;;3.40;1.98;;;20.80;99.90;;;;;;5038543;28;20037;-75
2022/07/12 08:26:13;;;;;;;2.35;2.15;;;20.70;99.90;;;;;;5031791;28;20623;-75
2022/07/12 08:28:39;;;;;;;2.50;1.55;;;20.60;99.90;;;;;;5047095;28;20029;-75
2022/07/12 08:31:04;;;;;;;2.75;1.70;;;20.60;99.90;;;;;;5058560;28;20406;-76
2022/07/12 08:33:30;;;;;;;2.20;1.60;;;20.50;99.90;;;;;;5048850;28;20059;-76
2022/07/12 08:35:55;;;;;;;1.60;1.40;;;20.50;99.90;;;;;;5038945;28;20049;-75
2022/07/12 08:38:21;;;;;;;2.50;1.50;;;20.70;99.90;;;;;;5041776;28;20064;-75
2022/07/12 08:40:47;;;;;;;4.35;1.67;;;21.00;99.90;;;;;;5043104;28;20630;-76
2022/07/12 08:43:13;;;;;;;1.90;1.67;;;21.50;99.90;;;;;;5029707;28;20037;-76
2022/07/12 08:45:40;;;;;;;4.13;1.63;;;21.90;99.90;;;;;;5043655;28;20025;-75
2022/07/12 08:48:07;;;;;;;3.55;1.30;;;22.20;99.90;;;;;;5038481;28;20032;-76
2022/07/12 08:50:32;;;;;;;1.33;1.23;;;22.50;99.90;;;;;;5050758;28;20032;-76
2022/07/12 08:52:58;;;;;;;3.92;1.40;;;22.40;99.90;;;;;;5044370;28;20029;-76
2022/07/12 08:55:34;;;;;;;1.30;1.20;;;22.10;99.90;;;;;;5039646;28;20093;-76
2022/07/12 08:58:05;;;;;;;3.47;1.30;;;22.00;99.90;;;;;;5041207;28;20033;-75
2022/07/12 09:00:31;;;;;;;1.17;1.00;;;22.30;99.90;;;;;;5027840;28;20056;-76
2022/07/12 09:03:00;;;;;;;2.63;1.25;;;22.60;99.90;;;;;;5045675;28;20039;-76
2022/07/12 09:05:27;;;;;;;1.95;1.23;;;23.00;99.90;;;;;;5043159;28;20033;-76
2022/07/12 09:08:03;;;;;;;1.75;1.10;;;23.50;99.90;;;;;;5032030;28;20036;-76
2022/07/12 09:10:29;;;;;;;2.05;1.20;;;23.60;99.90;;;;;;5043430;28;20108;-76
2022/07/12 09:12:54;;;;;;;1.50;1.00;;;23.50;99.90;;;;;;5030589;28;20117;-76
2022/07/12 09:15:21;;;;;;;2.72;1.15;;;23.30;99.90;;;;;;5042801;28;20051;-76
2022/07/12 09:18:13;;;;;;;1.92;1.25;;;23.00;99.90;;;;;;5044911;28;20033;-76
2022/07/12 09:20:40;;;;;;;2.28;1.20;;;22.70;99.90;;;;;;5046273;28;20104;-76
2022/07/12 09:23:11;;;;;;;4.43;1.73;;;22.60;99.90;;;;;;5033229;28;20310;-76
2022/07/12 09:25:38;;;;;;;1.30;1.20;;;22.80;99.90;;;;;;5035465;28;20039;-76
2022/07/12 09:28:08;;;;;;;4.38;1.10;;;23.10;99.90;;;;;;5041865;28;20570;-76
2022/07/12 09:30:39;;;;;;;2.00;1.10;;;23.20;99.90;;;;;;5040584;28;20751;-76
2022/07/12 09:36:06;;;;;;;3.03;1.40;;;23.00;99.90;;;;;;5030119;28;20392;-77
2022/07/12 09:38:36;;;;;;;3.00;1.20;;;23.20;99.90;;;;;;5033280;28;20025;-77
2022/07/12 09:41:02;;;;;;;0.88;0.73;;;23.40;99.90;;;;;;5040565;28;20037;-77
2022/07/12 09:43:28;;;;;;;1.02;0.80;;;23.50;99.90;;;;;;5041803;28;20036;-78
2022/07/12 09:45:54;;;;;;;1.00;0.80;;;23.70;99.90;;;;;;5034108;28;20033;-77
2022/07/12 09:48:23;;;;;;;1.35;0.80;;;23.80;99.30;;;;;;5028943;28;20622;-77
2022/07/12 09:50:50;;;;;;;1.05;0.75;;;23.90;98.40;;;;;;5038803;28;20116;-77
2022/07/12 09:53:35;;;;;;;1.30;1.02;;;24.00;99.00;;;;;;5045628;28;20052;-77
2022/07/12 09:56:06;;;;;;;5.97;1.23;;;24.10;98.80;;;;;;5040806;28;20116;-78
2022/07/12 09:58:40;;;;;;;0.90;0.88;;;24.20;96.70;;;;;;5035990;28;20026;-77
2022/07/12 10:01:07;;;;;;;4.22;0.90;;;24.20;98.40;;;;;;5043591;28;20036;-78
2022/07/12 10:03:36;;;;;;;2.15;0.90;;;24.20;98.00;;;;;;5045520;28;20028;-77
2022/07/12 10:06:02;;;;;;;2.53;0.70;;;24.20;98.20;;;;;;5041224;28;20480;-77
2022/07/12 10:08:29;;;;;;;1.73;0.50;;;24.40;97.20;;;;;;5028407;28;20051;-81
2022/07/12 10:10:55;;;;;;;0.57;0.50;;;24.40;97.50;;;;;;5044291;28;20037;-79
2022/07/12 10:13:21;;;;;;;2.15;0.60;;;24.60;97.40;;;;;;5042507;28;20021;-82
2022/07/12 10:15:49;;;;;;;1.05;0.70;;;24.70;96.40;;;;;;5039278;28;20029;-81
2022/07/12 10:18:19;;;;;;;1.27;0.70;;;24.90;96.20;;;;;;5033101;28;20029;-83
2022/07/12 10:20:47;;;;;;;1.63;0.63;;;25.10;96.00;;;;;;5042095;28;20033;-85
2022/07/12 10:23:36;;;;;;;1.10;0.93;;;25.20;95.90;;;;;;5033443;28;20040;-83
2022/07/12 10:26:26;;;;;;;1.60;0.60;;;25.30;93.80;;;;;;5042388;28;20032;-82
2022/07/12 10:29:03;;;;;;;3.05;0.80;;;25.40;93.80;;;;;;5042273;28;20393;-82
2022/07/12 10:31:33;;;;;;;1.13;0.70;;;25.50;93.00;;;;;;5045201;28;20036;-79
2022/07/12 10:34:22;;;;;;;0.70;0.70;;;25.60;92.60;;;;;;5040222;28;20025;-85
2022/07/12 10:36:54;;;;;;;2.65;1.00;;;25.70;93.50;;;;;;5031769;28;20041;-79
2022/07/12 10:39:21;;;;;;;2.55;0.90;;;25.70;92.70;;;;;;5041616;28;20047;-83
2022/07/12 10:42:07;;;;;;;3.38;0.70;;;25.80;92.20;;;;;;5033451;28;20025;-79
2022/07/12 10:44:39;;;;;;;0.80;0.77;;;25.80;91.70;;;;;;5027009;28;20705;-80
2022/07/12 10:47:06;;;;;;;1.35;0.82;;;25.80;91.40;;;;;;5034706;28;20203;-79
2022/07/12 10:49:33;;;;;;;2.58;0.82;;;25.80;89.50;;;;;;5043732;28;20389;-76
2022/07/12 10:52:11;;;;;;;0.68;0.50;;;25.70;88.90;;;;;;5035136;28;20529;-80
2022/07/12 10:54:42;;;;;;;1.90;0.68;;;25.70;89.10;;;;;;5043750;28;20052;-78
2022/07/12 10:57:08;;;;;;;1.73;0.70;;;25.60;86.30;;;;;;5040509;28;20621;-75
2022/07/12 10:59:36;;;;;;;0.55;0.55;;;25.60;90.10;;;;;;5039534;28;20048;-77
2022/07/12 11:02:02;;;;;;;2.08;0.50;;;25.60;86.20;;;;;;5039487;28;20033;-76
2022/07/12 11:04:28;;;;;;;0.93;0.50;;;25.70;87.10;;;;;;5043604;28;20053;-77
2022/07/12 11:06:58;;;;;;;0.40;0.40;;;25.80;85.00;;;;;;4694184;28;10000213;-75
2022/07/12 11:09:26;;;;;;;2.05;0.50;;;25.90;81.60;;;;;;5021611;28;20052;-77
2022/07/12 11:11:52;;;;;;;0.50;0.40;;;26.00;82.10;;;;;;5043993;28;20112;-77
2022/07/12 11:14:23;;;;;;;1.02;0.65;;;26.20;82.30;;;;;;5035917;28;20037;-77
2022/07/12 11:16:51;;;;;;;1.33;0.40;;;26.30;78.00;;;;;;5040980;28;20049;-76
2022/07/12 11:19:24;;;;;;;0.95;0.40;;;26.20;75.20;;;;;;5041432;28;20041;-76
2022/07/12 11:22:00;;;;;;;3.67;0.70;;;26.20;74.80;;;;;;5041176;28;20041;-77
2022/07/12 11:24:35;;;;;;;1.00;0.52;;;26.10;73.30;;;;;;5038813;28;20112;-77
2022/07/12 11:27:01;;;;;;;1.27;0.50;;;26.00;75.90;;;;;;5034972;28;20115;-77
2022/07/12 11:29:27;;;;;;;0.47;0.40;;;26.20;77.20;;;;;;5032454;28;20172;-77
2022/07/12 11:32:05;;;;;;;1.23;0.57;;;26.30;73.80;;;;;;5028508;28;20065;-77
2022/07/12 11:34:31;;;;;;;0.50;0.50;;;26.50;74.60;;;;;;5034994;28;20040;-77
2022/07/12 11:36:59;;;;;;;1.58;0.50;;;26.60;72.80;;;;;;5044271;28;20412;-77
2022/07/12 11:39:30;;;;;;;1.88;0.50;;;26.70;71.20;;;;;;5041975;28;20036;-77
2022/07/12 11:41:57;;;;;;;1.80;0.45;;;26.90;68.60;;;;;;5036617;28;20060;-77
2022/07/12 11:44:46;;;;;;;2.97;0.50;;;26.90;69.10;;;;;;5044351;28;20033;-77
2022/07/12 11:47:12;;;;;;;1.23;0.40;;;26.90;66.60;;;;;;5049472;28;20036;-77
2022/07/12 11:49:47;;;;;;;0.52;0.40;;;26.90;66.60;;;;;;5042978;28;20140;-75
2022/07/12 11:52:17;;;;;;;0.40;0.40;;;27.00;64.00;;;;;;5047821;28;20470;-75
2022/07/12 11:54:43;;;;;;;0.32;0.32;;;26.90;63.30;;;;;;5045319;28;20044;-75
2022/07/12 11:57:10;;;;;;;0.30;0.30;;;27.00;66.00;;;;;;5044926;28;20528;-75
2022/07/12 11:59:36;;;;;;;3.28;0.50;;;27.10;65.00;;;;;;5044643;28;20043;-75
2022/07/12 12:02:05;;;;;;;1.00;0.32;;;27.30;64.30;;;;;;5043960;28;20025;-75
2022/07/12 12:04:31;;;;;;;0.40;0.40;;;27.30;62.50;;;;;;4695026;28;10000599;-75
2022/07/12 12:06:57;;;;;;;2.08;0.30;;;27.40;62.10;;;;;;5032716;28;20033;-75
2022/07/12 12:09:22;;;;;;;0.52;0.40;;;27.60;62.30;;;;;;5040457;28;20032;-75
2022/07/12 12:11:48;;;;;;;0.40;0.40;;;27.70;61.50;;;;;;5038665;28;20026;-79
2022/07/12 12:14:14;;;;;;;1.52;0.40;;;27.70;60.50;;;;;;5030182;28;20385;-74
2022/07/12 12:16:39;;;;;;;2.92;0.40;;;27.70;60.70;;;;;;5034740;28;20055;-76
2022/07/12 12:19:11;;;;;;;1.00;0.40;;;27.70;58.70;;;;;;5040437;28;20037;-80
2022/07/12 12:21:36;;;;;;;1.27;0.38;;;27.70;58.10;;;;;;5031103;28;20029;-76
2022/07/12 12:24:09;;;;;;;0.57;0.30;;;27.70;58.00;;;;;;5034277;28;20106;-77
2022/07/12 12:26:36;;;;;;;0.30;0.30;;;27.70;57.90;;;;;;5044970;28;20304;-78
2022/07/12 12:29:02;;;;;;;0.30;0.30;;;27.70;58.90;;;;;;5040522;28;20457;-78
2022/07/12 12:31:28;;;;;;;0.35;0.30;;;27.90;58.10;;;;;;5040249;28;20067;-78
2022/07/12 12:33:58;;;;;;;0.50;0.20;;;28.00;55.40;;;;;;5032951;28;20069;-78
2022/07/12 12:36:29;;;;;;;0.55;0.30;;;28.10;56.00;;;;;;5024926;28;20045;-77
2022/07/12 12:38:57;;;;;;;1.17;0.30;;;28.20;55.80;;;;;;5020811;28;20391;-77
2022/07/12 12:41:24;;;;;;;0.88;0.30;;;28.20;55.70;;;;;;5014862;28;20394;-78
2022/07/12 12:44:01;;;;;;;2.08;0.30;;;28.30;54.10;;;;;;5026409;28;20233;-78
2022/07/12 12:46:49;;;;;;;0.30;0.30;;;28.40;56.30;;;;;;5022874;28;20119;-78
2022/07/12 12:49:15;;;;;;;1.42;0.28;;;28.60;55.30;;;;;;5015351;28;20044;-78
2022/07/12 12:51:55;;;;;;;3.05;0.30;;;28.80;55.10;;;;;;5022668;28;20025;-76
2022/07/12 12:54:34;;;;;;;0.57;0.20;;;28.80;54.40;;;;;;5039708;28;20024;-77
2022/07/12 12:57:00;;;;;;;0.25;0.25;;;28.80;52.60;;;;;;5018599;28;20489;-77